Time;durP1;ratioP1;P1;durP2;ratioP2;P2;SDS_P1;SDS_P2;PMS_P1;PMS_P2;Temp;Humidity;BMP_temperature;BMP_pressure;BME280_temperature;BME280_humidity;BME280_pressure;Samples;Min_cycle;Max_cycle;Signal;HPM_P1;HPM_P2
2023/09/20 00:00:29;;;;;;;1.35;1.23;;;11.80;99.90;;;;;;5051566;28;20014;-80
2023/09/20 00:02:55;;;;;;;0.70;0.68;;;11.80;99.90;;;;;;5052236;28;20021;-80
2023/09/20 00:05:21;;;;;;;3.45;1.02;;;11.80;99.90;;;;;;5051859;28;20072;-80
2023/09/20 00:07:51;;;;;;;2.90;1.10;;;11.70;99.90;;;;;;5053694;28;20025;-79
2023/09/20 00:10:18;;;;;;;1.90;1.13;;;11.70;99.90;;;;;;5052652;28;20014;-80
2023/09/20 00:12:44;;;;;;;2.60;0.80;;;11.70;99.90;;;;;;5052910;28;20023;-79
2023/09/20 00:15:11;;;;;;;0.57;0.57;;;11.70;99.90;;;;;;5053049;28;20025;-79
2023/09/20 00:17:37;;;;;;;5.35;1.00;;;11.70;99.90;;;;;;5053372;28;20043;-82
2023/09/20 00:20:14;;;;;;;4.60;1.23;;;11.60;99.90;;;;;;5051249;28;20033;-79
2023/09/20 00:22:44;;;;;;;3.13;0.40;;;11.60;99.90;;;;;;5052129;28;20013;-78
2023/09/20 00:25:11;;;;;;;1.17;0.82;;;11.60;99.90;;;;;;5052685;28;20243;-79
2023/09/20 00:27:40;;;;;;;1.73;0.73;;;11.60;99.90;;;;;;5057797;28;20010;-76
2023/09/20 00:30:10;;;;;;;0.70;0.70;;;11.60;99.90;;;;;;5057194;28;20028;-77
2023/09/20 00:32:48;;;;;;;0.82;0.80;;;11.60;99.90;;;;;;5056329;28;20010;-78
2023/09/20 00:35:16;;;;;;;0.35;0.35;;;11.50;99.90;;;;;;5037859;28;20041;-76
2023/09/20 00:37:44;;;;;;;0.77;0.77;;;11.50;99.90;;;;;;5056097;28;20024;-77
2023/09/20 00:40:18;;;;;;;1.75;0.80;;;11.40;99.90;;;;;;5055879;28;20014;-76
2023/09/20 00:42:51;;;;;;;3.65;1.38;;;11.50;99.90;;;;;;5055682;28;20022;-77
2023/09/20 00:45:18;;;;;;;4.68;1.25;;;11.40;99.90;;;;;;5057129;28;20005;-78
2023/09/20 00:47:49;;;;;;;2.92;1.48;;;11.30;99.90;;;;;;5055935;28;20029;-76
2023/09/20 00:50:15;;;;;;;0.95;0.70;;;11.30;99.90;;;;;;5057639;28;20028;-78
2023/09/20 00:52:51;;;;;;;3.05;1.00;;;11.40;99.90;;;;;;5057957;28;20028;-75
2023/09/20 00:55:27;;;;;;;1.42;0.98;;;11.90;99.90;;;;;;5056443;28;20036;-79
2023/09/20 00:58:19;;;;;;;2.35;0.60;;;11.40;99.90;;;;;;5056692;28;20032;-78
2023/09/20 01:00:45;;;;;;;1.38;0.82;;;11.30;99.90;;;;;;5056218;28;20021;-77
2023/09/20 01:03:18;;;;;;;0.68;0.68;;;11.30;99.90;;;;;;5056228;28;20109;-76
2023/09/20 01:05:48;;;;;;;0.43;0.43;;;11.40;99.90;;;;;;5056685;28;20061;-77
2023/09/20 01:08:14;;;;;;;0.60;0.60;;;11.30;99.90;;;;;;5057274;28;20057;-79
2023/09/20 01:10:42;;;;;;;2.07;0.57;;;11.20;99.90;;;;;;5057734;28;20018;-81
2023/09/20 01:13:09;;;;;;;0.75;0.75;;;11.10;99.90;;;;;;5057441;28;20017;-81
2023/09/20 01:15:36;;;;;;;0.55;0.50;;;11.10;99.90;;;;;;5056804;28;20022;-79
2023/09/20 01:18:04;;;;;;;1.65;0.80;;;11.10;99.90;;;;;;5056250;28;20037;-80
2023/09/20 01:20:32;;;;;;;3.35;0.88;;;11.10;99.90;;;;;;5054418;28;20352;-80
2023/09/20 01:22:59;;;;;;;0.40;0.40;;;11.10;99.90;;;;;;5053697;28;20022;-76
2023/09/20 01:25:36;;;;;;;1.13;0.73;;;11.10;99.90;;;;;;5054626;28;20041;-80
2023/09/20 01:28:05;;;;;;;0.88;0.77;;;11.00;99.90;;;;;;5053609;28;20029;-80
2023/09/20 01:30:33;;;;;;;0.55;0.55;;;11.00;99.90;;;;;;5052576;28;20018;-80
2023/09/20 01:33:03;;;;;;;0.60;0.60;;;10.90;99.90;;;;;;5052555;28;20033;-79
2023/09/20 01:35:31;;;;;;;0.40;0.40;;;10.90;99.90;;;;;;5054858;28;20016;-75
2023/09/20 01:38:06;;;;;;;3.08;0.85;;;10.90;99.90;;;;;;5056740;28;20018;-76
2023/09/20 01:40:35;;;;;;;5.78;0.70;;;10.90;99.90;;;;;;5056413;28;20024;-75
2023/09/20 01:43:09;;;;;;;0.98;0.50;;;10.90;99.90;;;;;;5056416;28;20055;-75
2023/09/20 01:45:38;;;;;;;1.95;0.70;;;10.80;99.90;;;;;;5055767;28;20002;-75
2023/09/20 01:48:08;;;;;;;1.23;0.73;;;10.80;99.90;;;;;;5056705;28;20033;-75
2023/09/20 01:50:34;;;;;;;3.85;0.55;;;10.80;99.90;;;;;;5057165;28;20029;-75
2023/09/20 01:53:05;;;;;;;0.70;0.70;;;10.80;99.90;;;;;;5048050;23;20041;-76
2023/09/20 01:55:31;;;;;;;2.95;0.95;;;10.70;99.90;;;;;;5040201;28;20026;-75
2023/09/20 01:58:03;;;;;;;2.17;1.20;;;10.70;99.90;;;;;;5056418;28;20006;-75
2023/09/20 02:00:36;;;;;;;1.00;0.90;;;10.70;99.90;;;;;;5040488;28;20041;-76
2023/09/20 02:03:16;;;;;;;1.42;1.33;;;10.70;99.90;;;;;;5040993;28;20018;-76
2023/09/20 02:05:44;;;;;;;2.00;0.90;;;10.60;99.90;;;;;;5039548;28;20017;-76
2023/09/20 02:08:10;;;;;;;0.40;0.40;;;10.60;99.90;;;;;;5040443;28;20026;-75
2023/09/20 02:11:03;;;;;;;0.60;0.60;;;10.50;99.90;;;;;;5055520;28;20040;-73
2023/09/20 02:13:29;;;;;;;2.30;0.60;;;10.50;99.90;;;;;;5040411;28;20022;-75
2023/09/20 02:15:59;;;;;;;0.70;0.70;;;10.50;99.90;;;;;;5040303;28;20005;-75
2023/09/20 02:18:25;;;;;;;0.90;0.90;;;10.40;99.90;;;;;;5040050;28;20025;-78
2023/09/20 02:20:55;;;;;;;0.88;0.88;;;10.50;99.90;;;;;;5039828;28;20010;-75
2023/09/20 02:23:44;;;;;;;1.13;0.47;;;10.50;99.90;;;;;;5056189;28;20025;-75
2023/09/20 02:26:18;;;;;;;1.33;1.13;;;10.50;99.90;;;;;;5039780;28;20014;-77
2023/09/20 02:28:44;;;;;;;0.68;0.68;;;10.40;99.90;;;;;;5038538;28;20061;-75
2023/09/20 02:31:20;;;;;;;0.85;0.85;;;10.40;99.90;;;;;;5040283;28;20102;-77
2023/09/20 02:33:48;;;;;;;0.93;0.68;;;10.40;99.90;;;;;;5037982;28;20030;-78
2023/09/20 02:36:14;;;;;;;5.35;1.13;;;10.40;99.90;;;;;;5038274;28;20026;-73
2023/09/20 02:38:59;;;;;;;0.90;0.90;;;10.40;99.90;;;;;;5039905;28;20014;-75
2023/09/20 02:41:25;;;;;;;1.00;0.90;;;10.30;99.90;;;;;;5040453;28;20013;-75
2023/09/20 02:44:03;;;;;;;0.75;0.75;;;10.30;99.90;;;;;;5039983;28;20014;-76
2023/09/20 02:46:31;;;;;;;0.77;0.77;;;10.30;99.90;;;;;;5038678;28;20026;-75
2023/09/20 02:48:56;;;;;;;1.83;1.08;;;10.20;99.90;;;;;;5038729;28;20014;-75
2023/09/20 02:51:37;;;;;;;0.95;0.65;;;10.20;99.90;;;;;;5039770;28;20037;-77
2023/09/20 02:57:07;;;;;;;1.17;0.93;;;10.20;99.90;;;;;;5040393;28;20017;-76
2023/09/20 02:59:55;;;;;;;1.27;1.13;;;10.20;99.90;;;;;;5039765;28;20043;-78
2023/09/20 03:02:21;;;;;;;1.08;1.02;;;10.20;99.90;;;;;;5035920;28;20021;-75
2023/09/20 03:04:51;;;;;;;0.90;0.90;;;10.30;99.90;;;;;;5037459;28;20025;-75
2023/09/20 03:07:18;;;;;;;0.73;0.73;;;10.20;99.90;;;;;;5036524;28;20206;-75
2023/09/20 03:09:46;;;;;;;0.70;0.70;;;10.20;99.90;;;;;;5052503;28;20187;-75
2023/09/20 03:12:13;;;;;;;0.77;0.77;;;10.20;99.90;;;;;;5034201;28;20221;-79
2023/09/20 03:14:39;;;;;;;1.00;0.85;;;10.10;99.90;;;;;;5034160;28;20310;-77
2023/09/20 03:17:05;;;;;;;2.10;1.15;;;10.10;99.90;;;;;;5035453;28;20021;-76
2023/09/20 03:19:33;;;;;;;1.05;1.02;;;10.10;99.90;;;;;;5036434;28;20069;-75
2023/09/20 03:22:06;;;;;;;0.55;0.55;;;10.10;99.90;;;;;;5036985;28;20037;-79
2023/09/20 03:24:35;;;;;;;0.50;0.50;;;10.00;99.90;;;;;;5034705;28;20018;-77
2023/09/20 03:27:01;;;;;;;0.70;0.70;;;10.00;99.90;;;;;;5033351;28;20044;-80
2023/09/20 03:29:28;;;;;;;1.20;0.90;;;10.00;99.90;;;;;;5034562;28;20018;-76
2023/09/20 03:31:53;;;;;;;1.30;1.13;;;10.00;99.90;;;;;;5034413;28;20025;-77
2023/09/20 03:34:20;;;;;;;0.82;0.82;;;10.00;99.90;;;;;;5035778;28;20029;-77
2023/09/20 03:36:46;;;;;;;1.13;0.95;;;9.90;99.90;;;;;;5035942;28;20017;-77
2023/09/20 03:39:12;;;;;;;0.65;0.65;;;9.90;99.90;;;;;;5032511;28;20017;-76
2023/09/20 03:41:41;;;;;;;1.45;0.85;;;9.90;99.90;;;;;;5033992;28;20028;-76
2023/09/20 03:44:07;;;;;;;1.70;1.60;;;10.00;99.90;;;;;;5033037;28;20022;-79
2023/09/20 03:46:32;;;;;;;2.33;0.95;;;10.10;99.90;;;;;;5032999;28;20032;-77
2023/09/20 03:48:59;;;;;;;2.58;1.00;;;10.10;99.90;;;;;;5031637;28;20021;-76
2023/09/20 03:51:24;;;;;;;0.70;0.70;;;10.00;99.90;;;;;;5030218;28;20033;-77
2023/09/20 03:53:50;;;;;;;1.60;1.17;;;9.90;99.90;;;;;;5035535;28;20069;-75
2023/09/20 03:56:19;;;;;;;2.05;0.80;;;9.90;99.90;;;;;;5035371;28;20038;-77
2023/09/20 03:58:45;;;;;;;1.50;0.60;;;9.90;99.90;;;;;;5036743;28;20052;-76
2023/09/20 04:01:15;;;;;;;0.85;0.80;;;9.80;99.90;;;;;;5035485;28;20022;-76
2023/09/20 04:03:42;;;;;;;0.75;0.57;;;9.70;99.90;;;;;;5036740;28;20013;-76
2023/09/20 04:06:07;;;;;;;0.70;0.60;;;9.70;99.90;;;;;;5035404;28;20030;-76
2023/09/20 04:08:36;;;;;;;0.40;0.40;;;9.70;99.90;;;;;;5035303;28;20041;-75
2023/09/20 04:11:05;;;;;;;0.57;0.57;;;9.70;99.90;;;;;;5034588;28;20034;-76
2023/09/20 04:13:31;;;;;;;3.00;1.08;;;9.70;99.90;;;;;;5032127;28;20017;-79
2023/09/20 04:15:57;;;;;;;0.70;0.70;;;9.70;99.90;;;;;;5031875;28;20048;-78
2023/09/20 04:18:26;;;;;;;0.63;0.60;;;9.60;99.90;;;;;;5033264;28;20032;-78
2023/09/20 04:20:53;;;;;;;0.93;0.87;;;9.60;99.90;;;;;;5032704;28;20301;-77
2023/09/20 04:23:26;;;;;;;1.60;0.77;;;9.60;99.90;;;;;;5014477;28;20022;-77
2023/09/20 04:25:52;;;;;;;1.55;1.05;;;9.50;99.90;;;;;;5013952;28;20045;-80
2023/09/20 04:28:18;;;;;;;1.52;1.42;;;9.60;99.90;;;;;;5012607;28;20126;-81
2023/09/20 04:30:43;;;;;;;1.15;0.90;;;9.70;99.90;;;;;;5011474;28;20021;-79
2023/09/20 04:33:10;;;;;;;1.55;1.45;;;9.70;99.90;;;;;;5011236;28;20082;-79
2023/09/20 04:35:36;;;;;;;0.90;0.90;;;9.70;99.90;;;;;;5008045;28;20202;-76
2023/09/20 04:38:02;;;;;;;1.02;0.88;;;9.60;99.90;;;;;;5008383;28;20057;-77
2023/09/20 04:40:28;;;;;;;0.90;0.77;;;9.60;99.90;;;;;;5008531;28;20411;-76
2023/09/20 04:42:53;;;;;;;3.22;1.05;;;9.60;99.90;;;;;;5022364;28;20028;-78
2023/09/20 04:45:19;;;;;;;1.05;0.93;;;9.60;99.90;;;;;;5023793;28;20014;-79
2023/09/20 04:47:45;;;;;;;0.65;0.65;;;9.70;99.90;;;;;;5028618;28;20042;-76
2023/09/20 04:50:12;;;;;;;1.13;1.13;;;9.70;99.90;;;;;;5029871;28;20045;-80
2023/09/20 04:52:38;;;;;;;3.35;1.00;;;9.70;99.90;;;;;;5034430;28;20050;-78
2023/09/20 04:55:05;;;;;;;5.32;0.98;;;9.70;99.90;;;;;;5029448;28;20028;-77
2023/09/20 04:57:31;;;;;;;1.27;1.15;;;9.80;99.90;;;;;;5026787;28;20018;-77
2023/09/20 04:59:57;;;;;;;0.73;0.73;;;9.80;99.90;;;;;;5028436;28;20045;-78
2023/09/20 05:02:23;;;;;;;0.93;0.93;;;9.90;99.90;;;;;;5030296;28;20025;-77
2023/09/20 05:04:48;;;;;;;1.30;0.80;;;9.90;99.90;;;;;;5029213;28;20029;-78
2023/09/20 05:07:14;;;;;;;0.60;0.60;;;9.90;99.90;;;;;;5031708;28;20033;-79
2023/09/20 05:09:40;;;;;;;4.85;0.80;;;9.90;99.90;;;;;;5031489;28;20018;-78
2023/09/20 05:12:06;;;;;;;0.73;0.73;;;9.80;99.90;;;;;;5029100;28;20021;-78
2023/09/20 05:14:31;;;;;;;2.42;1.30;;;9.80;99.90;;;;;;5032314;28;20022;-79
2023/09/20 05:16:57;;;;;;;1.27;0.80;;;9.90;99.90;;;;;;5029902;28;20029;-78
2023/09/20 05:19:23;;;;;;;0.77;0.77;;;10.00;99.90;;;;;;5031036;28;20014;-78
2023/09/20 05:21:49;;;;;;;0.98;0.98;;;10.00;99.90;;;;;;5032361;28;20018;-80
2023/09/20 05:24:14;;;;;;;1.00;1.00;;;10.10;99.90;;;;;;5034124;28;20052;-79
2023/09/20 05:26:40;;;;;;;1.67;1.00;;;10.10;99.90;;;;;;5032591;28;20010;-78
2023/09/20 05:29:06;;;;;;;0.93;0.70;;;10.20;99.90;;;;;;5036233;28;20053;-79
2023/09/20 05:31:32;;;;;;;5.00;0.95;;;10.20;99.90;;;;;;5033391;28;20052;-80
2023/09/20 05:33:58;;;;;;;0.63;0.63;;;10.20;99.90;;;;;;5031505;28;20018;-81
2023/09/20 05:36:27;;;;;;;1.40;1.30;;;10.30;99.90;;;;;;5029232;28;20093;-77
2023/09/20 05:38:53;;;;;;;1.13;0.93;;;10.30;99.90;;;;;;5013383;28;20022;-77
2023/09/20 05:41:19;;;;;;;0.85;0.85;;;10.40;99.90;;;;;;5011144;28;20037;-79
2023/09/20 05:43:45;;;;;;;1.15;0.75;;;10.50;99.90;;;;;;5012611;28;20030;-77
2023/09/20 05:46:13;;;;;;;2.10;1.00;;;10.50;99.90;;;;;;5013130;28;20049;-78
2023/09/20 05:48:39;;;;;;;0.98;0.50;;;10.60;99.90;;;;;;5011607;28;20025;-77
2023/09/20 05:51:05;;;;;;;2.42;0.85;;;10.70;99.90;;;;;;5012745;28;20100;-77
2023/09/20 05:53:31;;;;;;;2.30;1.42;;;10.70;99.90;;;;;;5012736;28;20042;-77
2023/09/20 05:56:05;;;;;;;0.70;0.70;;;10.90;99.90;;;;;;5013492;28;20022;-77
2023/09/20 05:58:31;;;;;;;1.33;1.23;;;11.00;99.90;;;;;;5014711;28;20022;-77
2023/09/20 06:00:59;;;;;;;9.23;1.38;;;11.20;99.90;;;;;;5010117;28;20121;-76
2023/09/20 06:03:25;;;;;;;2.88;1.05;;;11.30;99.90;;;;;;5008908;28;20426;-78
2023/09/20 06:05:50;;;;;;;4.57;1.20;;;11.40;99.90;;;;;;5014297;28;20018;-77
2023/09/20 06:08:16;;;;;;;1.15;1.05;;;11.50;99.90;;;;;;5017509;28;20087;-78
2023/09/20 06:10:44;;;;;;;4.45;1.33;;;11.60;99.90;;;;;;5017893;28;20026;-78
2023/09/20 06:13:10;;;;;;;2.92;0.93;;;11.70;99.90;;;;;;5016978;28;20032;-76
2023/09/20 06:15:37;;;;;;;1.25;1.10;;;11.80;99.90;;;;;;5013547;28;20018;-78
2023/09/20 06:18:03;;;;;;;0.82;0.82;;;11.90;99.90;;;;;;5018926;28;20490;-80
2023/09/20 06:20:29;;;;;;;1.25;0.98;;;12.10;99.90;;;;;;5020385;28;20028;-79
2023/09/20 06:22:56;;;;;;;1.13;0.70;;;12.20;99.90;;;;;;5021945;28;20249;-78
2023/09/20 06:25:22;;;;;;;0.73;0.73;;;12.30;99.90;;;;;;5016566;28;20076;-76
2023/09/20 06:27:55;;;;;;;6.07;1.08;;;12.40;99.90;;;;;;5011962;28;20048;-76
2023/09/20 06:30:21;;;;;;;0.65;0.57;;;12.50;99.90;;;;;;5012250;28;20084;-77
2023/09/20 06:32:47;;;;;;;1.63;1.52;;;12.60;99.90;;;;;;5011168;28;20022;-77
2023/09/20 06:35:15;;;;;;;1.35;1.13;;;12.70;99.90;;;;;;5011741;28;20029;-78
2023/09/20 06:37:45;;;;;;;1.48;1.38;;;12.70;99.90;;;;;;5010201;28;20541;-77
2023/09/20 06:40:22;;;;;;;1.67;1.33;;;12.80;99.90;;;;;;5010352;28;20058;-77
2023/09/20 06:42:47;;;;;;;2.55;1.40;;;12.80;99.90;;;;;;5010272;28;20443;-77
2023/09/20 06:45:13;;;;;;;2.13;1.30;;;12.90;99.90;;;;;;5012603;28;20506;-79
2023/09/20 06:47:40;;;;;;;1.63;1.52;;;13.00;99.90;;;;;;5014060;28;20335;-78
2023/09/20 06:50:07;;;;;;;1.02;1.02;;;13.10;99.90;;;;;;5013156;28;20426;-77
2023/09/20 06:52:33;;;;;;;1.45;1.20;;;13.10;99.90;;;;;;5013779;28;20046;-78
2023/09/20 06:54:58;;;;;;;2.50;1.00;;;13.10;99.90;;;;;;5013040;28;20071;-78
2023/09/20 06:57:24;;;;;;;0.80;0.80;;;13.20;99.90;;;;;;5014388;28;20022;-78
2023/09/20 06:59:54;;;;;;;0.95;0.95;;;13.20;99.90;;;;;;5015383;28;20030;-78
2023/09/20 07:02:20;;;;;;;3.70;1.02;;;13.20;99.90;;;;;;5015148;28;20095;-77
2023/09/20 07:04:48;;;;;;;5.68;0.80;;;13.20;99.90;;;;;;5013121;28;20108;-77
2023/09/20 07:07:14;;;;;;;1.35;1.25;;;13.20;99.90;;;;;;5013956;28;20030;-78
2023/09/20 07:09:39;;;;;;;1.30;1.20;;;13.40;99.90;;;;;;5013435;28;20018;-77
2023/09/20 07:12:07;;;;;;;1.40;1.02;;;13.40;99.90;;;;;;5014831;28;20026;-78
2023/09/20 07:14:34;;;;;;;1.67;1.48;;;13.50;99.90;;;;;;5010817;28;20024;-78
2023/09/20 07:17:03;;;;;;;1.75;1.65;;;13.60;99.90;;;;;;5010879;28;20026;-78
2023/09/20 07:19:29;;;;;;;2.83;0.73;;;13.70;99.90;;;;;;5010725;28;20018;-78
2023/09/20 07:21:56;;;;;;;1.30;1.20;;;13.80;99.90;;;;;;5010788;28;20441;-78
2023/09/20 07:24:25;;;;;;;1.50;1.08;;;13.80;99.90;;;;;;5011214;28;20474;-77
2023/09/20 07:26:58;;;;;;;3.40;1.42;;;13.90;99.90;;;;;;5009775;28;20092;-77
2023/09/20 07:29:27;;;;;;;1.13;1.02;;;14.00;99.90;;;;;;5014272;28;20389;-78
2023/09/20 07:31:53;;;;;;;3.00;1.50;;;14.10;99.90;;;;;;5014746;28;20025;-78
2023/09/20 07:34:23;;;;;;;2.70;1.52;;;14.10;99.90;;;;;;5014124;28;20022;-80
2023/09/20 07:36:53;;;;;;;3.65;1.30;;;14.20;99.90;;;;;;5015642;28;20049;-79
2023/09/20 07:39:21;;;;;;;2.95;1.30;;;14.30;99.90;;;;;;5015284;28;20037;-80
2023/09/20 07:41:50;;;;;;;1.13;1.10;;;14.40;99.90;;;;;;5012660;28;20382;-76
2023/09/20 07:44:23;;;;;;;1.40;1.27;;;14.40;99.90;;;;;;5009309;28;20034;-79
2023/09/20 07:46:52;;;;;;;1.58;1.15;;;14.40;99.90;;;;;;5008672;28;20052;-78
2023/09/20 07:49:19;;;;;;;2.38;0.77;;;14.40;99.90;;;;;;5008068;28;20022;-81
2023/09/20 07:51:45;;;;;;;1.52;1.13;;;14.50;99.90;;;;;;5007331;28;20100;-76
2023/09/20 07:54:10;;;;;;;2.30;1.00;;;14.80;99.90;;;;;;5010317;28;20391;-75
2023/09/20 07:56:37;;;;;;;2.63;1.50;;;14.90;99.90;;;;;;5008002;28;20116;-76
2023/09/20 07:59:06;;;;;;;0.80;0.80;;;15.00;99.90;;;;;;5009867;28;20057;-78
2023/09/20 08:01:32;;;;;;;2.03;1.08;;;15.00;99.90;;;;;;5008434;28;20037;-82
2023/09/20 08:03:59;;;;;;;3.33;1.98;;;15.20;99.90;;;;;;5007894;28;20045;-77
2023/09/20 08:06:36;;;;;;;1.70;1.42;;;15.30;99.90;;;;;;5009800;28;20399;-78
2023/09/20 08:09:03;;;;;;;1.52;1.42;;;15.50;99.90;;;;;;5008188;28;20128;-78
2023/09/20 08:11:30;;;;;;;1.17;0.95;;;15.50;99.90;;;;;;5009907;28;20173;-77
2023/09/20 08:13:57;;;;;;;0.85;0.85;;;15.70;99.90;;;;;;5012910;28;20030;-77
2023/09/20 08:16:24;;;;;;;1.83;1.25;;;15.80;99.90;;;;;;5020112;28;20060;-77
2023/09/20 08:19:11;;;;;;;4.50;1.75;;;15.80;99.90;;;;;;5018152;28;20321;-78
2023/09/20 08:21:38;;;;;;;1.58;0.90;;;15.90;99.90;;;;;;5018350;28;20026;-80
2023/09/20 08:59:57;;;;;;;0.65;0.65;;;19.30;99.90;;;;;;5019881;28;20028;-78
2023/09/20 09:02:24;;;;;;;1.67;1.15;;;19.00;99.90;;;;;;5022642;28;20018;-78
2023/09/20 09:04:53;;;;;;;3.10;0.73;;;18.80;99.90;;;;;;5022410;28;20030;-78
2023/09/20 09:07:20;;;;;;;1.30;0.75;;;18.80;99.90;;;;;;5023718;28;20036;-77
2023/09/20 09:09:46;;;;;;;0.82;0.70;;;18.80;99.90;;;;;;5023779;28;20029;-77
2023/09/20 09:12:12;;;;;;;0.80;0.80;;;18.70;99.90;;;;;;5022650;28;20029;-79
2023/09/20 09:14:40;;;;;;;1.17;0.80;;;18.80;99.90;;;;;;5023725;28;20018;-77
2023/09/20 09:17:08;;;;;;;1.00;1.00;;;18.90;99.90;;;;;;5023718;28;20049;-78
2023/09/20 09:19:35;;;;;;;3.77;0.80;;;19.00;99.90;;;;;;5025681;28;20018;-78
2023/09/20 09:22:02;;;;;;;1.88;0.82;;;19.00;99.90;;;;;;5022808;28;20034;-77
2023/09/20 09:24:40;;;;;;;1.05;0.85;;;19.20;99.90;;;;;;5023621;28;20025;-79
2023/09/20 09:27:08;;;;;;;1.30;1.15;;;19.30;99.90;;;;;;5023596;28;20337;-77
2023/09/20 09:29:34;;;;;;;3.08;0.98;;;19.40;99.90;;;;;;5022493;28;20032;-79
2023/09/20 09:32:04;;;;;;;0.95;0.50;;;19.40;99.90;;;;;;5023541;28;20282;-78
2023/09/20 09:34:30;;;;;;;4.68;0.80;;;19.40;99.90;;;;;;5023415;28;20068;-77
2023/09/20 09:36:56;;;;;;;1.20;0.68;;;19.50;99.90;;;;;;5022171;28;20326;-78
2023/09/20 09:39:22;;;;;;;1.75;0.50;;;19.60;99.90;;;;;;5023471;28;20310;-78
2023/09/20 09:41:47;;;;;;;1.50;0.90;;;19.70;99.90;;;;;;5023528;28;20080;-79
2023/09/20 09:44:14;;;;;;;2.35;0.95;;;19.90;99.90;;;;;;5022154;28;20206;-78
2023/09/20 09:46:41;;;;;;;0.60;0.60;;;20.00;99.90;;;;;;5023151;28;20218;-78
2023/09/20 09:49:18;;;;;;;0.80;0.75;;;20.10;99.90;;;;;;5023394;28;20021;-78
2023/09/20 09:51:45;;;;;;;1.05;0.70;;;20.30;99.90;;;;;;5021374;28;20109;-78
2023/09/20 09:54:15;;;;;;;4.38;0.60;;;20.30;99.90;;;;;;5023208;28;20089;-78
2023/09/20 09:56:41;;;;;;;0.45;0.45;;;20.40;99.90;;;;;;5021951;28;20018;-78
2023/09/20 09:59:07;;;;;;;1.65;0.73;;;20.40;99.90;;;;;;5023019;28;20030;-78
2023/09/20 10:01:36;;;;;;;1.20;0.70;;;20.50;99.90;;;;;;5023111;28;20028;-78
2023/09/20 10:04:08;;;;;;;2.83;1.15;;;20.60;99.90;;;;;;5022749;28;20225;-78
2023/09/20 10:06:46;;;;;;;1.15;0.70;;;20.70;99.90;;;;;;5021378;28;20305;-78
2023/09/20 10:09:15;;;;;;;0.90;0.75;;;20.90;99.90;;;;;;5023071;28;20016;-78
2023/09/20 10:11:41;;;;;;;1.17;0.90;;;20.90;99.90;;;;;;5020054;28;20018;-78
2023/09/20 10:14:09;;;;;;;0.85;0.77;;;21.00;99.90;;;;;;5020616;28;20029;-79
2023/09/20 10:16:35;;;;;;;1.15;1.05;;;21.10;99.90;;;;;;5022422;28;20037;-79
2023/09/20 10:19:02;;;;;;;1.13;0.75;;;21.10;99.90;;;;;;5020741;28;20294;-79
2023/09/20 10:21:30;;;;;;;1.33;0.60;;;21.20;99.90;;;;;;5019372;28;20237;-78
2023/09/20 10:24:07;;;;;;;0.45;0.45;;;21.30;99.90;;;;;;5019731;28;20018;-79
2023/09/20 10:26:43;;;;;;;3.03;0.60;;;21.30;99.90;;;;;;5012419;28;20026;-78
2023/09/20 10:29:24;;;;;;;0.93;0.88;;;21.40;99.90;;;;;;5011177;28;20525;-78
2023/09/20 10:31:52;;;;;;;0.98;0.98;;;21.50;99.90;;;;;;5009869;28;20079;-79
2023/09/20 10:34:21;;;;;;;1.20;0.80;;;21.60;99.90;;;;;;5010169;28;20028;-78
2023/09/20 10:36:54;;;;;;;0.80;0.60;;;21.60;99.90;;;;;;5009323;28;20475;-78
2023/09/20 10:39:19;;;;;;;0.75;0.65;;;21.70;99.90;;;;;;5010130;28;20117;-79
2023/09/20 10:41:46;;;;;;;0.60;0.60;;;21.70;99.90;;;;;;5011145;28;20113;-79
2023/09/20 10:44:28;;;;;;;1.73;0.70;;;21.80;99.90;;;;;;5011267;28;20045;-79
2023/09/20 10:46:53;;;;;;;2.28;0.70;;;22.00;99.90;;;;;;5009736;28;20064;-79
2023/09/20 10:49:59;;;;;;;1.63;0.85;;;21.90;99.90;;;;;;5010810;28;20030;-79
2023/09/20 10:52:33;;;;;;;1.40;1.20;;;21.80;99.90;;;;;;4949038;29;20043;-79
2023/09/20 10:55:22;;;;;;;1.60;0.85;;;22.00;99.90;;;;;;4933331;29;20035;-78
2023/09/20 10:57:49;;;;;;;0.88;0.88;;;22.00;99.90;;;;;;4991517;28;20037;-78
2023/09/20 11:00:18;;;;;;;2.05;1.00;;;22.00;99.90;;;;;;5009320;28;20046;-78
2023/09/20 11:02:52;;;;;;;6.18;1.27;;;22.10;99.90;;;;;;5009336;28;20229;-79
2023/09/20 11:05:18;;;;;;;1.10;0.90;;;22.10;99.90;;;;;;4999532;28;20026;-78
2023/09/20 11:07:46;;;;;;;1.70;0.90;;;22.20;99.90;;;;;;4997426;28;20029;-79
2023/09/20 11:10:13;;;;;;;1.00;1.00;;;22.30;99.90;;;;;;5000944;28;20035;-78
2023/09/20 11:12:43;;;;;;;2.88;1.30;;;22.30;98.90;;;;;;5001547;28;20022;-78
2023/09/20 11:15:10;;;;;;;1.58;0.90;;;22.30;98.70;;;;;;5001012;28;20052;-79
2023/09/20 11:17:36;;;;;;;1.00;0.75;;;22.40;99.20;;;;;;5010311;28;20265;-87
2023/09/20 11:20:04;;;;;;;1.40;0.80;;;22.40;98.50;;;;;;5009239;28;20018;-80
2023/09/20 11:22:31;;;;;;;4.03;0.70;;;22.40;98.30;;;;;;5007747;28;20026;-79
2023/09/20 11:24:57;;;;;;;0.90;0.85;;;22.50;98.20;;;;;;5002471;28;20058;-82
2023/09/20 11:27:27;;;;;;;1.02;0.93;;;22.60;97.90;;;;;;5009101;28;20038;-82
2023/09/20 11:29:53;;;;;;;1.40;0.88;;;22.70;97.30;;;;;;5009072;28;20197;-81
2023/09/20 11:32:23;;;;;;;1.73;1.08;;;22.80;97.40;;;;;;5004629;28;20444;-80
2023/09/20 11:34:50;;;;;;;0.73;0.73;;;22.80;98.40;;;;;;5003367;28;20023;-82
2023/09/20 11:37:19;;;;;;;0.90;0.73;;;22.90;96.50;;;;;;5004274;28;20030;-82
2023/09/20 11:39:50;;;;;;;0.47;0.47;;;22.90;95.80;;;;;;5004882;28;20426;-83
2023/09/20 11:42:48;;;;;;;0.73;0.73;;;22.90;94.60;;;;;;4990231;28;20447;-82
2023/09/20 11:45:16;;;;;;;0.70;0.68;;;23.10;94.20;;;;;;4963249;28;20085;-80
2023/09/20 11:47:42;;;;;;;0.98;0.80;;;23.30;94.60;;;;;;4991469;28;20030;-83
2023/09/20 11:50:15;;;;;;;0.70;0.70;;;23.40;93.70;;;;;;4991333;28;20085;-82
2023/09/20 11:52:48;;;;;;;1.38;0.73;;;23.60;93.30;;;;;;5005148;28;20056;-80
2023/09/20 11:55:15;;;;;;;0.75;0.50;;;23.80;92.90;;;;;;4990162;28;20098;-80
2023/09/20 11:57:47;;;;;;;3.65;0.75;;;24.10;92.50;;;;;;4991035;28;20081;-80
2023/09/20 12:00:18;;;;;;;1.67;0.80;;;24.80;91.70;;;;;;5006906;28;20121;-82
2023/09/20 12:02:44;;;;;;;1.40;0.70;;;25.80;89.90;;;;;;5006626;28;20076;-81
2023/09/20 12:05:11;;;;;;;1.17;0.80;;;27.50;85.00;;;;;;5007483;28;20432;-82
2023/09/20 12:07:36;;;;;;;1.35;0.50;;;28.40;80.30;;;;;;5016688;28;20395;-83
2023/09/20 12:10:02;;;;;;;1.35;1.13;;;28.50;78.50;;;;;;5014404;28;20022;-82
2023/09/20 12:12:31;;;;;;;4.70;0.80;;;28.80;76.00;;;;;;5006441;28;20380;-81
2023/09/20 12:14:56;;;;;;;0.55;0.45;;;29.40;75.50;;;;;;4990681;28;20034;-82
2023/09/20 12:17:22;;;;;;;2.78;1.33;;;30.30;72.10;;;;;;5007298;28;20041;-81
2023/09/20 12:19:48;;;;;;;0.80;0.80;;;31.60;70.00;;;;;;4990569;28;20173;-82
2023/09/20 12:22:14;;;;;;;0.80;0.80;;;32.40;67.10;;;;;;5005746;28;20046;-81
2023/09/20 12:24:39;;;;;;;1.13;0.80;;;33.20;63.60;;;;;;5006169;28;20041;-82
2023/09/20 12:27:05;;;;;;;0.80;0.80;;;33.20;62.50;;;;;;5005890;28;20440;-80
2023/09/20 12:29:31;;;;;;;0.77;0.60;;;33.80;60.10;;;;;;5006392;28;20026;-80
2023/09/20 12:31:57;;;;;;;1.13;0.65;;;33.70;59.00;;;;;;5006362;28;20030;-82
2023/09/20 12:34:22;;;;;;;0.73;0.38;;;33.70;60.10;;;;;;4992000;28;20044;-81
2023/09/20 12:36:48;;;;;;;1.85;1.00;;;33.80;58.30;;;;;;5005134;28;20030;-80
2023/09/20 12:39:16;;;;;;;0.85;0.85;;;34.20;58.20;;;;;;4991791;28;20471;-81
2023/09/20 12:41:42;;;;;;;0.85;0.65;;;33.90;58.10;;;;;;5007161;28;20117;-81
2023/09/20 12:44:08;;;;;;;1.10;1.00;;;33.40;58.60;;;;;;5007689;28;20045;-79
2023/09/20 12:46:36;;;;;;;1.73;0.52;;;33.40;59.60;;;;;;5006244;28;20042;-81
2023/09/20 12:49:04;;;;;;;0.98;0.55;;;34.40;57.20;;;;;;5006010;28;20026;-81
2023/09/20 12:51:30;;;;;;;1.23;0.60;;;35.10;56.20;;;;;;5006438;28;20077;-79
2023/09/20 12:53:56;;;;;;;1.73;0.57;;;35.40;54.90;;;;;;5007471;28;20117;-79
2023/09/20 12:56:22;;;;;;;1.38;0.50;;;36.10;55.40;;;;;;5006951;28;20046;-80
2023/09/20 12:58:50;;;;;;;0.57;0.40;;;35.70;53.80;;;;;;4990651;28;20022;-83
2023/09/20 13:01:16;;;;;;;1.20;0.80;;;35.10;54.90;;;;;;4991551;28;20353;-82
2023/09/20 13:03:42;;;;;;;1.80;0.73;;;35.20;53.90;;;;;;5006213;28;20056;-80
2023/09/20 13:06:14;;;;;;;4.13;0.60;;;35.30;52.60;;;;;;4989222;28;20032;-79
2023/09/20 13:08:44;;;;;;;0.70;0.40;;;35.50;51.60;;;;;;5006020;28;20034;-79
2023/09/20 13:11:10;;;;;;;1.15;0.70;;;35.90;53.10;;;;;;5005558;28;20018;-79
2023/09/20 13:13:38;;;;;;;0.60;0.60;;;36.40;52.00;;;;;;4989310;28;20037;-78
2023/09/20 13:16:06;;;;;;;3.75;0.52;;;36.80;52.70;;;;;;5006086;28;20115;-80
2023/09/20 13:18:33;;;;;;;0.70;0.70;;;37.20;51.40;;;;;;5005847;28;20031;-82
2023/09/20 13:20:58;;;;;;;1.67;0.80;;;36.80;50.30;;;;;;5005154;28;20018;-80
2023/09/20 13:23:26;;;;;;;0.70;0.70;;;35.80;51.10;;;;;;4991000;28;20030;-82
2023/09/20 13:25:52;;;;;;;1.55;0.40;;;35.90;53.30;;;;;;5005290;28;20076;-81
2023/09/20 13:28:18;;;;;;;0.68;0.65;;;36.00;52.60;;;;;;5006229;28;20038;-80
2023/09/20 13:30:44;;;;;;;0.40;0.40;;;36.60;52.10;;;;;;5005825;28;20026;-78
2023/09/20 13:33:12;;;;;;;0.95;0.65;;;37.00;50.70;;;;;;5006097;28;20027;-79